St. Simon — WDI9604 — position and weather

sailwx.info

Track history (hours):
 
Tides and Currents Weather Stations Pressure Air Temp Water Temp Dewpoint Dewpoint Depression Visibility Wind Speed Wind Dir Waves Ship Positions

St. Simon

Owner: Marquette Transportation Company Gulf-Inland, LLC, Jefferson, LA. More information available from US FCC via Universal Licensing System and Coast Guard Vessel Documentation Center.

Last reported at 2017-Sep-12 02:57 UTC. Time now 2017-Sep-24 03:18 UTC.
Position N 32°46' W 091°09'.
Warning: this ship's position is 12 days out of date.

Length 26 m; draft 3 m.

Type: Ship (hazmat cat B). MMSI: 367750340.

Date/timePositionNaut miles runAvg speedWind from/ knotsBaromVisibWave heightAir tempDewpointWater temp
2017-Sep-12 02:57N 32°46' W 091°09'6 2.0
2017-Sep-11 23:45N 32°40' W 091°08'1 3.3
2017-Sep-11 23:31N 32°40' W 091°08'2 3.6
2017-Sep-11 23:01N 32°38' W 091°09'2 4.0
2017-Sep-11 22:30N 32°36' W 091°08'2 4.0
2017-Sep-11 22:00N 32°34' W 091°07'2 3.6
2017-Sep-11 21:30N 32°33' W 091°06'1 2.3
2017-Sep-11 21:00N 32°32' W 091°06'2 4.0
2017-Sep-11 20:30N 32°30' W 091°07'2 4.1
2017-Sep-11 20:01N 32°28' W 091°06'2 3.9
2017-Sep-11 19:30N 32°27' W 091°04'2 3.9
2017-Sep-11 19:00N 32°26' W 091°02'2 4.1
2017-Sep-11 18:30N 32°25' W 091°00'2 3.2
2017-Sep-11 18:01N 32°24' W 090°60'1 1.2
2017-Sep-11 17:31N 32°23' W 090°60'2 3.4
2017-Sep-11 17:01N 32°21' W 090°60'2 3.8
2017-Sep-11 16:31N 32°21' W 090°58'1 1.3
2017-Sep-11 16:00N 32°21' W 090°57'2 4.3
2017-Sep-11 15:30N 32°20' W 090°55'2 3.7
2017-Sep-11 15:01N 32°19' W 090°55'1 2.6
2017-Sep-11 14:30N 32°18' W 090°56'1 2.8
2017-Sep-11 14:00N 32°17' W 090°57'2 3.9
2017-Sep-11 13:30N 32°15' W 090°58'2 4.3
2017-Sep-11 13:00N 32°13' W 090°59'2 4.2
2017-Sep-11 12:31N 32°11' W 090°60'2 4.1
2017-Sep-11 12:00N 32°09' W 091°00'2 4.0
2017-Sep-11 11:30N 32°07' W 091°01'3 4.2
2017-Sep-11 10:44N 32°08' W 091°05'1 4.4
2017-Sep-11 10:31N 32°08' W 091°06'2 3.3
2017-Sep-11 10:00N 32°06' W 091°06'3 4.0
2017-Sep-11 09:15N 32°04' W 091°04'1 4.0
2017-Sep-11 09:00N 32°03' W 091°03'3 5.0
2017-Sep-11 08:27N 32°00' W 091°05'5 4.2
2017-Sep-11 07:10N 31°58' W 091°11'1 3.3
2017-Sep-11 07:00N 31°58' W 091°11'  
2017-Sep-08 10:06N 29°49' W 092°01'1 2.2
2017-Sep-08 09:49N 29°49' W 092°02'2 6.0
2017-Sep-08 09:31N 29°48' W 092°04'3 6.0
2017-Sep-08 09:01N 29°47' W 092°07'3 5.6
2017-Sep-08 08:29N 29°47' W 092°10'1 1.3
2017-Sep-08 07:59N 29°47' W 092°11'0 0.0
2017-Sep-08 07:31N 29°47' W 092°11'0 0.0
2017-Sep-08 07:00N 29°47' W 092°11'0 0.0
2017-Sep-08 06:31N 29°47' W 092°11'0 0.1
2017-Sep-08 06:00N 29°47' W 092°11'2 4.1
2017-Sep-08 05:31N 29°47' W 092°13'0 0.7
2017-Sep-08 05:01N 29°48' W 092°14'3 5.3
2017-Sep-08 04:30N 29°49' W 092°16'4 6.0
2017-Sep-08 03:55N 29°51' W 092°20'36 5.0
2017-Sep-07 20:42N 29°56' W 093°01'1 5.2
2017-Sep-07 20:30N 29°56' W 093°02'3 5.0
2017-Sep-07 20:00N 29°56' W 093°05'3 5.1
2017-Sep-07 19:31N 29°56' W 093°08'2 4.4
2017-Sep-07 19:01N 29°57' W 093°10'3 5.1
2017-Sep-07 18:31N 29°59' W 093°12'3 5.0
2017-Sep-07 18:01N 30°01' W 093°14'2 4.5
2017-Sep-07 17:30N 30°02' W 093°15'2 3.7
2017-Sep-07 17:01N 30°04' W 093°16'2 4.3
2017-Sep-07 16:30N 30°05' W 093°18'1 2.8
2017-Sep-07 16:00N 30°05' W 093°20'3 5.2
2017-Sep-07 15:31N 30°04' W 093°22'0 0.2
2017-Sep-07 15:01N 30°04' W 093°21'0 0.1
2017-Sep-07 14:30N 30°04' W 093°21'0 0.0
2017-Sep-07 12:08N 30°04' W 093°21'0 0.1
2017-Sep-07 11:59N 30°04' W 093°21'0 0.1
2017-Sep-07 11:31N 30°04' W 093°21'0 0.3
2017-Sep-07 11:01N 30°04' W 093°21'0 0.0
2017-Sep-07 10:29N 30°04' W 093°21'1 2.8
2017-Sep-07 10:00N 30°05' W 093°20'2 3.1
2017-Sep-07 09:30N 30°06' W 093°19'0 0.2
2017-Sep-07 09:00N 30°06' W 093°19'0 0.2
2017-Sep-07 08:30N 30°06' W 093°19'0 0.4
2017-Sep-07 08:00N 30°06' W 093°19'2 3.3
2017-Sep-07 07:30N 30°04' W 093°21'0 0.3
2017-Sep-07 07:00N 30°04' W 093°21'1 2.4
2017-Sep-07 06:31N 30°05' W 093°20'1 1.5
2017-Sep-07 06:00N 30°06' W 093°19'1 1.2
2017-Sep-07 05:31N 30°05' W 093°20'1 2.2
2017-Sep-07 05:00N 30°04' W 093°20'0 0.0
2017-Sep-07 04:30N 30°04' W 093°20'1 2.8
2017-Sep-07 04:00N 30°04' W 093°22'0 0.5
2017-Sep-07 03:30N 30°04' W 093°21'0 0.4
2017-Sep-07 03:00N 30°04' W 093°22'0 0.1
2017-Sep-07 02:30N 30°04' W 093°21'0 0.0
2017-Sep-07 02:00N 30°04' W 093°21'0 0.3
2017-Sep-07 01:30N 30°04' W 093°21'1 2.9
2017-Sep-07 01:01N 30°05' W 093°20'2 3.8
2017-Sep-07 00:30N 30°06' W 093°19'2 3.9
2017-Sep-07 00:00N 30°05' W 093°17'0 0.6
2017-Sep-06 23:30N 30°05' W 093°17'1 2.6
2017-Sep-06 23:00N 30°05' W 093°18'2 4.9
2017-Sep-06 22:30N 30°04' W 093°20'1 2.6
2017-Sep-06 22:00N 30°04' W 093°22'0 0.0
2017-Sep-06 21:30N 30°04' W 093°22'0 0.0
2017-Sep-06 21:00N 30°04' W 093°22'0 0.1
2017-Sep-06 20:30N 30°04' W 093°21'0 0.4
2017-Sep-06 20:01N 30°04' W 093°21'1 1.2
2017-Sep-06 19:30N 30°04' W 093°21'1 1.7
2017-Sep-06 19:01N 30°05' W 093°20'2 3.9
2017-Sep-06 18:31N 30°06' W 093°19'2 4.2
2017-Sep-06 18:01N 30°05' W 093°17'0 0.1
2017-Sep-06 17:31N 30°05' W 093°17'0 0.1
2017-Sep-06 17:01N 30°05' W 093°17'1 2.4
2017-Sep-06 16:31N 30°04' W 093°16'2 3.3
2017-Sep-06 16:01N 30°02' W 093°15'2 4.0
2017-Sep-06 15:31N 30°01' W 093°14'2 3.2
2017-Sep-06 15:01N 29°59' W 093°13'1 1.8
2017-Sep-06 14:31N 29°59' W 093°12'0 0.0
2017-Sep-06 14:01N 29°59' W 093°12'0 0.1
2017-Sep-06 13:31N 29°59' W 093°12'1 1.3
2017-Sep-06 13:01N 29°58' W 093°12'2 3.6
2017-Sep-06 12:31N 29°57' W 093°10'2 3.5
2017-Sep-06 12:01N 29°56' W 093°08'2 4.0
2017-Sep-06 11:30N 29°56' W 093°06'2 4.1
2017-Sep-06 10:58N 29°56' W 093°04'37 3.8
2017-Sep-06 01:28N 29°51' W 092°22'2 3.5
2017-Sep-06 01:01N 29°51' W 092°20'2 3.5
2017-Sep-06 00:31N 29°50' W 092°18'2 3.5
2017-Sep-06 00:01N 29°49' W 092°17'2 3.7
2017-Sep-05 23:30N 29°48' W 092°15'2 3.9
2017-Sep-05 23:01N 29°47' W 092°13'1 2.4
2017-Sep-05 22:31N 29°47' W 092°11'1 1.6
2017-Sep-05 22:00N 29°47' W 092°10'2 3.6
2017-Sep-05 21:30N 29°47' W 092°08'2 3.6
2017-Sep-05 21:01N 29°48' W 092°07'2 4.0
2017-Sep-05 20:31N 29°48' W 092°04'2 4.2
2017-Sep-05 20:00N 29°49' W 092°02'2 4.3
2017-Sep-05 19:31N 29°50' W 091°60'137 2.7
2017-Sep-03 17:38N 31°59' W 091°08'1 7.7
2017-Sep-03 17:27N 31°59' W 091°06'4 7.9
2017-Sep-03 16:59N 32°02' W 091°04'4 7.3
2017-Sep-03 16:24N 32°06' W 091°06'2 5.1
2017-Sep-03 16:01N 32°08' W 091°05'4 7.6
2017-Sep-03 15:31N 32°08' W 091°01'4 8.3
2017-Sep-03 15:00N 32°12' W 090°60'8 7.9
2017-Sep-03 14:01N 32°18' W 090°55'3 5.2
2017-Sep-03 13:31N 32°21' W 090°56'4 7.3
2017-Sep-03 13:01N 32°22' W 091°00'4 7.4
2017-Sep-03 12:30N 32°25' W 091°00'4 8.0
2017-Sep-03 12:01N 32°27' W 091°05'4 7.4
2017-Sep-03 11:31N 32°30' W 091°07'4 7.9
2017-Sep-03 11:01N 32°34' W 091°06'4 8.0
2017-Sep-03 10:31N 32°37' W 091°09'4 7.2
2017-Sep-03 10:00N 32°40' W 091°07'4 7.2
2017-Sep-03 09:25N 32°43' W 091°03'  
Track history (hours):
 
Tides and Currents Weather Stations Pressure Air Temp Water Temp Dewpoint Dewpoint Depression Visibility Wind Speed Wind Dir Waves Ship Positions

St. Simon

Owner: Marquette Transportation Company Gulf-Inland, LLC, Jefferson, LA. More information available from US FCC via Universal Licensing System and Coast Guard Vessel Documentation Center.

Last reported at 2017-Sep-12 02:57 UTC. Time now 2017-Sep-24 03:18 UTC.
Position N 32°46' W 091°09'.
Warning: this ship's position is 12 days out of date.

Length 26 m; draft 3 m.

Type: Ship (hazmat cat B). MMSI: 367750340.

Date/timePositionNaut miles runAvg speedWind from/ knotsBaromVisibWave heightAir tempDewpointWater temp
2017-Sep-12 02:57N 32°46' W 091°09'6 2.0
2017-Sep-11 23:45N 32°40' W 091°08'1 3.3
2017-Sep-11 23:31N 32°40' W 091°08'2 3.6
2017-Sep-11 23:01N 32°38' W 091°09'2 4.0
2017-Sep-11 22:30N 32°36' W 091°08'2 4.0
2017-Sep-11 22:00N 32°34' W 091°07'2 3.6
2017-Sep-11 21:30N 32°33' W 091°06'1 2.3
2017-Sep-11 21:00N 32°32' W 091°06'2 4.0
2017-Sep-11 20:30N 32°30' W 091°07'2 4.1
2017-Sep-11 20:01N 32°28' W 091°06'2 3.9
2017-Sep-11 19:30N 32°27' W 091°04'2 3.9
2017-Sep-11 19:00N 32°26' W 091°02'2 4.1
2017-Sep-11 18:30N 32°25' W 091°00'2 3.2
2017-Sep-11 18:01N 32°24' W 090°60'1 1.2
2017-Sep-11 17:31N 32°23' W 090°60'2 3.4
2017-Sep-11 17:01N 32°21' W 090°60'2 3.8
2017-Sep-11 16:31N 32°21' W 090°58'1 1.3
2017-Sep-11 16:00N 32°21' W 090°57'2 4.3
2017-Sep-11 15:30N 32°20' W 090°55'2 3.7
2017-Sep-11 15:01N 32°19' W 090°55'1 2.6
2017-Sep-11 14:30N 32°18' W 090°56'1 2.8
2017-Sep-11 14:00N 32°17' W 090°57'2 3.9
2017-Sep-11 13:30N 32°15' W 090°58'2 4.3
2017-Sep-11 13:00N 32°13' W 090°59'2 4.2
2017-Sep-11 12:31N 32°11' W 090°60'2 4.1
2017-Sep-11 12:00N 32°09' W 091°00'2 4.0
2017-Sep-11 11:30N 32°07' W 091°01'3 4.2
2017-Sep-11 10:44N 32°08' W 091°05'1 4.4
2017-Sep-11 10:31N 32°08' W 091°06'2 3.3
2017-Sep-11 10:00N 32°06' W 091°06'3 4.0
2017-Sep-11 09:15N 32°04' W 091°04'1 4.0
2017-Sep-11 09:00N 32°03' W 091°03'3 5.0
2017-Sep-11 08:27N 32°00' W 091°05'5 4.2
2017-Sep-11 07:10N 31°58' W 091°11'1 3.3
2017-Sep-11 07:00N 31°58' W 091°11'  
2017-Sep-08 10:06N 29°49' W 092°01'1 2.2
2017-Sep-08 09:49N 29°49' W 092°02'2 6.0
2017-Sep-08 09:31N 29°48' W 092°04'3 6.0
2017-Sep-08 09:01N 29°47' W 092°07'3 5.6
2017-Sep-08 08:29N 29°47' W 092°10'1 1.3
2017-Sep-08 07:59N 29°47' W 092°11'0 0.0
2017-Sep-08 07:31N 29°47' W 092°11'0 0.0
2017-Sep-08 07:00N 29°47' W 092°11'0 0.0
2017-Sep-08 06:31N 29°47' W 092°11'0 0.1
2017-Sep-08 06:00N 29°47' W 092°11'2 4.1
2017-Sep-08 05:31N 29°47' W 092°13'0 0.7
2017-Sep-08 05:01N 29°48' W 092°14'3 5.3
2017-Sep-08 04:30N 29°49' W 092°16'4 6.0
2017-Sep-08 03:55N 29°51' W 092°20'36 5.0
2017-Sep-07 20:42N 29°56' W 093°01'1 5.2
2017-Sep-07 20:30N 29°56' W 093°02'3 5.0
2017-Sep-07 20:00N 29°56' W 093°05'3 5.1
2017-Sep-07 19:31N 29°56' W 093°08'2 4.4
2017-Sep-07 19:01N 29°57' W 093°10'3 5.1
2017-Sep-07 18:31N 29°59' W 093°12'3 5.0
2017-Sep-07 18:01N 30°01' W 093°14'2 4.5
2017-Sep-07 17:30N 30°02' W 093°15'2 3.7
2017-Sep-07 17:01N 30°04' W 093°16'2 4.3
2017-Sep-07 16:30N 30°05' W 093°18'1 2.8
2017-Sep-07 16:00N 30°05' W 093°20'3 5.2
2017-Sep-07 15:31N 30°04' W 093°22'0 0.2
2017-Sep-07 15:01N 30°04' W 093°21'0 0.1
2017-Sep-07 14:30N 30°04' W 093°21'0 0.0
2017-Sep-07 12:08N 30°04' W 093°21'0 0.1
2017-Sep-07 11:59N 30°04' W 093°21'0 0.1
2017-Sep-07 11:31N 30°04' W 093°21'0 0.3
2017-Sep-07 11:01N 30°04' W 093°21'0 0.0
2017-Sep-07 10:29N 30°04' W 093°21'1 2.8
2017-Sep-07 10:00N 30°05' W 093°20'2 3.1
2017-Sep-07 09:30N 30°06' W 093°19'0 0.2
2017-Sep-07 09:00N 30°06' W 093°19'0 0.2
2017-Sep-07 08:30N 30°06' W 093°19'0 0.4
2017-Sep-07 08:00N 30°06' W 093°19'2 3.3
2017-Sep-07 07:30N 30°04' W 093°21'0 0.3
2017-Sep-07 07:00N 30°04' W 093°21'1 2.4
2017-Sep-07 06:31N 30°05' W 093°20'1 1.5
2017-Sep-07 06:00N 30°06' W 093°19'1 1.2
2017-Sep-07 05:31N 30°05' W 093°20'1 2.2
2017-Sep-07 05:00N 30°04' W 093°20'0 0.0
2017-Sep-07 04:30N 30°04' W 093°20'1 2.8
2017-Sep-07 04:00N 30°04' W 093°22'0 0.5
2017-Sep-07 03:30N 30°04' W 093°21'0 0.4
2017-Sep-07 03:00N 30°04' W 093°22'0 0.1
2017-Sep-07 02:30N 30°04' W 093°21'0 0.0
2017-Sep-07 02:00N 30°04' W 093°21'0 0.3
2017-Sep-07 01:30N 30°04' W 093°21'1 2.9
2017-Sep-07 01:01N 30°05' W 093°20'2 3.8
2017-Sep-07 00:30N 30°06' W 093°19'2 3.9
2017-Sep-07 00:00N 30°05' W 093°17'0 0.6
2017-Sep-06 23:30N 30°05' W 093°17'1 2.6
2017-Sep-06 23:00N 30°05' W 093°18'2 4.9
2017-Sep-06 22:30N 30°04' W 093°20'1 2.6
2017-Sep-06 22:00N 30°04' W 093°22'0 0.0
2017-Sep-06 21:30N 30°04' W 093°22'0 0.0
2017-Sep-06 21:00N 30°04' W 093°22'0 0.1
2017-Sep-06 20:30N 30°04' W 093°21'0 0.4
2017-Sep-06 20:01N 30°04' W 093°21'1 1.2
2017-Sep-06 19:30N 30°04' W 093°21'1 1.7
2017-Sep-06 19:01N 30°05' W 093°20'2 3.9
2017-Sep-06 18:31N 30°06' W 093°19'2 4.2
2017-Sep-06 18:01N 30°05' W 093°17'0 0.1
2017-Sep-06 17:31N 30°05' W 093°17'0 0.1
2017-Sep-06 17:01N 30°05' W 093°17'1 2.4
2017-Sep-06 16:31N 30°04' W 093°16'2 3.3
2017-Sep-06 16:01N 30°02' W 093°15'2 4.0
2017-Sep-06 15:31N 30°01' W 093°14'2 3.2
2017-Sep-06 15:01N 29°59' W 093°13'1 1.8
2017-Sep-06 14:31N 29°59' W 093°12'0 0.0
2017-Sep-06 14:01N 29°59' W 093°12'0 0.1
2017-Sep-06 13:31N 29°59' W 093°12'1 1.3
2017-Sep-06 13:01N 29°58' W 093°12'2 3.6
2017-Sep-06 12:31N 29°57' W 093°10'2 3.5
2017-Sep-06 12:01N 29°56' W 093°08'2 4.0
2017-Sep-06 11:30N 29°56' W 093°06'2 4.1
2017-Sep-06 10:58N 29°56' W 093°04'37 3.8
2017-Sep-06 01:28N 29°51' W 092°22'2 3.5
2017-Sep-06 01:01N 29°51' W 092°20'2 3.5
2017-Sep-06 00:31N 29°50' W 092°18'2 3.5
2017-Sep-06 00:01N 29°49' W 092°17'2 3.7
2017-Sep-05 23:30N 29°48' W 092°15'2 3.9
2017-Sep-05 23:01N 29°47' W 092°13'1 2.4
2017-Sep-05 22:31N 29°47' W 092°11'1 1.6
2017-Sep-05 22:00N 29°47' W 092°10'2 3.6
2017-Sep-05 21:30N 29°47' W 092°08'2 3.6
2017-Sep-05 21:01N 29°48' W 092°07'2 4.0
2017-Sep-05 20:31N 29°48' W 092°04'2 4.2
2017-Sep-05 20:00N 29°49' W 092°02'2 4.3
2017-Sep-05 19:31N 29°50' W 091°60'137 2.7
2017-Sep-03 17:38N 31°59' W 091°08'1 7.7
2017-Sep-03 17:27N 31°59' W 091°06'4 7.9
2017-Sep-03 16:59N 32°02' W 091°04'4 7.3
2017-Sep-03 16:24N 32°06' W 091°06'2 5.1
2017-Sep-03 16:01N 32°08' W 091°05'4 7.6
2017-Sep-03 15:31N 32°08' W 091°01'4 8.3
2017-Sep-03 15:00N 32°12' W 090°60'8 7.9
2017-Sep-03 14:01N 32°18' W 090°55'3 5.2
2017-Sep-03 13:31N 32°21' W 090°56'4 7.3
2017-Sep-03 13:01N 32°22' W 091°00'4 7.4
2017-Sep-03 12:30N 32°25' W 091°00'4 8.0
2017-Sep-03 12:01N 32°27' W 091°05'4 7.4
2017-Sep-03 11:31N 32°30' W 091°07'4 7.9
2017-Sep-03 11:01N 32°34' W 091°06'4 8.0
2017-Sep-03 10:31N 32°37' W 091°09'4 7.2
2017-Sep-03 10:00N 32°40' W 091°07'4 7.2
2017-Sep-03 09:25N 32°43' W 091°03'  

Dump ship's entire track history